createdAt,value
2019-02-26T00:01:07.149Z,6.27
2019-02-26T00:03:36.657Z,6.07
2019-02-26T00:06:05.832Z,6.80
2019-02-26T00:08:34.925Z,7.17
2019-02-26T00:11:06.069Z,7.43
2019-02-26T00:13:36.616Z,7.47
2019-02-26T00:16:07.974Z,8.80
2019-02-26T00:18:36.701Z,6.13
2019-02-26T00:21:05.772Z,11.77
2019-02-26T00:23:35.371Z,8.50
2019-02-26T00:26:04.478Z,10.00
2019-02-26T00:28:34.252Z,9.67
2019-02-26T00:31:05.979Z,9.87
2019-02-26T00:33:35.349Z,8.77
2019-02-26T00:36:04.870Z,8.37
2019-02-26T00:38:35.852Z,7.30
2019-02-26T00:41:06.080Z,10.17
2019-02-26T00:43:36.912Z,7.80
2019-02-26T00:46:07.996Z,9.63
2019-02-26T00:48:40.244Z,8.20
2019-02-26T00:51:07.630Z,9.80
2019-02-26T00:53:36.902Z,7.70
2019-02-26T00:56:07.840Z,6.07
2019-02-26T00:58:38.970Z,8.07
2019-02-26T01:01:10.269Z,7.63
2019-02-26T01:03:40.129Z,7.53
2019-02-26T01:06:09.046Z,7.13
2019-02-26T01:08:38.417Z,6.00
2019-02-26T01:11:08.697Z,7.47
2019-02-26T01:13:38.057Z,7.23
2019-02-26T01:16:07.094Z,6.03
2019-02-26T01:18:36.439Z,6.00
2019-02-26T01:21:05.236Z,8.13
2019-02-26T01:23:34.025Z,7.23
2019-02-26T01:26:02.813Z,7.77
2019-02-26T01:28:31.834Z,9.03
2019-02-26T01:31:02.584Z,5.57
2019-02-26T01:33:34.178Z,8.30
2019-02-26T01:36:03.081Z,7.93
2019-02-26T01:38:31.913Z,7.77
2019-02-26T01:41:00.933Z,7.20
2019-02-26T01:43:30.206Z,6.90
2019-02-26T01:45:59.229Z,9.53
2019-02-26T01:48:29.991Z,7.03
2019-02-26T01:51:01.092Z,8.50
2019-02-26T01:53:30.256Z,7.67
2019-02-26T01:55:59.033Z,6.77
2019-02-26T01:58:28.049Z,8.97
2019-02-26T02:00:57.069Z,6.60
2019-02-26T02:03:28.014Z,7.63
2019-02-26T02:05:57.292Z,7.67
2019-02-26T02:08:26.326Z,6.97
2019-02-26T02:10:58.923Z,8.20
2019-02-26T02:13:30.368Z,6.47
2019-02-26T02:15:59.620Z,10.20
2019-02-26T02:18:29.895Z,6.70
2019-02-26T02:20:59.298Z,7.63
2019-02-26T02:23:30.234Z,8.90
2019-02-26T02:26:02.189Z,7.23
2019-02-26T02:28:31.125Z,7.97
2019-02-26T02:31:01.645Z,10.27
2019-02-26T02:33:32.972Z,8.80
2019-02-26T02:36:02.212Z,7.17
2019-02-26T02:38:31.483Z,8.97
2019-02-26T02:41:00.758Z,9.40
2019-02-26T02:43:29.902Z,6.07
2019-02-26T02:46:01.206Z,8.23
2019-02-26T02:48:29.450Z,10.37
2019-02-26T02:50:59.640Z,7.27
2019-02-26T02:53:30.179Z,6.80
2019-02-26T02:56:00.230Z,7.07
2019-02-26T02:58:29.265Z,8.57
2019-02-26T03:01:00.326Z,7.67
2019-02-26T03:03:29.173Z,6.63
2019-02-26T03:05:58.947Z,8.57
2019-02-26T03:08:29.037Z,7.23
2019-02-26T03:10:57.852Z,7.77
2019-02-26T03:13:27.998Z,6.73
2019-02-26T03:15:59.273Z,7.67
2019-02-26T03:18:27.941Z,7.87
2019-02-26T03:20:59.354Z,7.07
2019-02-26T03:23:27.738Z,6.57
2019-02-26T03:25:56.756Z,6.57
2019-02-26T03:28:25.620Z,6.53
2019-02-26T03:30:54.747Z,5.87
2019-02-26T03:33:23.563Z,7.07
2019-02-26T03:35:52.825Z,5.40
2019-02-26T03:38:23.568Z,6.90
2019-02-26T03:40:54.675Z,7.03
2019-02-26T03:43:23.347Z,6.03
2019-02-26T03:45:52.687Z,6.33
2019-02-26T03:48:21.781Z,7.10
2019-02-26T03:50:50.822Z,7.50
2019-02-26T03:53:19.597Z,8.27
2019-02-26T03:55:48.637Z,6.83
2019-02-26T03:58:18.281Z,21.47
2019-02-26T04:00:47.459Z,14.57
2019-02-26T04:03:17.485Z,8.63
2019-02-26T04:05:46.555Z,6.57
2019-02-26T04:08:16.681Z,7.83
2019-02-26T04:10:47.938Z,6.50
2019-02-26T04:13:17.083Z,6.47
2019-02-26T04:15:46.050Z,6.50
2019-02-26T04:18:15.073Z,5.50
2019-02-26T04:20:44.462Z,7.40
2019-02-26T04:23:16.573Z,6.33
2019-02-26T04:26:15.930Z,6.40
2019-02-26T04:28:54.370Z,5.57
2019-02-26T04:31:57.771Z,6.60
2019-02-26T04:35:05.360Z,5.47
2019-02-26T04:38:23.383Z,5.43
2019-02-26T04:41:18.766Z,9.70
2019-02-26T04:44:11.813Z,9.10
2019-02-26T04:47:02.677Z,12.73
2019-02-26T04:49:33.409Z,8.63
2019-02-26T04:52:02.944Z,8.53
2019-02-26T04:54:33.645Z,11.70
2019-02-26T04:57:03.484Z,15.93
2019-02-26T04:59:34.893Z,12.90
2019-02-26T05:02:03.746Z,14.50
2019-02-26T05:04:36.208Z,12.47
2019-02-26T05:07:05.158Z,18.63
2019-02-26T05:09:35.513Z,20.53
2019-02-26T05:12:04.469Z,19.93
2019-02-26T05:14:33.764Z,16.77
2019-02-26T05:17:02.559Z,16.47
2019-02-26T05:19:31.582Z,13.90
2019-02-26T05:22:01.630Z,18.67
2019-02-26T05:24:31.896Z,13.90
2019-02-26T05:27:02.614Z,13.37
2019-02-26T05:29:31.970Z,8.33
2019-02-26T05:32:03.963Z,8.93
2019-02-26T05:34:32.257Z,13.57
2019-02-26T05:37:02.364Z,17.23
2019-02-26T05:39:32.060Z,15.37
2019-02-26T05:42:03.205Z,10.20
2019-02-26T05:44:31.859Z,8.93
2019-02-26T05:47:01.606Z,8.13
2019-02-26T05:49:32.206Z,7.47
2019-02-26T05:52:04.083Z,7.93
2019-02-26T05:54:32.418Z,6.40
2019-02-26T05:57:02.340Z,6.97
2019-02-26T05:59:32.680Z,7.13
2019-02-26T06:02:01.718Z,7.73
2019-02-26T06:04:32.071Z,7.07
2019-02-26T06:07:02.175Z,8.67
2019-02-26T06:09:33.868Z,8.00
2019-02-26T06:12:02.729Z,9.77
2019-02-26T06:14:33.243Z,8.00
2019-02-26T06:17:02.822Z,8.70
2019-02-26T06:19:46.978Z,9.97
2019-02-26T06:22:20.141Z,13.23
2019-02-26T06:24:46.923Z,10.30
2019-02-26T06:27:18.807Z,11.53
2019-02-26T06:29:46.720Z,10.47
2019-02-26T06:32:15.927Z,8.70
2019-02-26T06:34:45.246Z,12.47
2019-02-26T06:37:23.551Z,10.47
2019-02-26T06:39:55.190Z,15.43
2019-02-26T06:42:23.739Z,24.17
2019-02-26T06:44:52.528Z,23.07
2019-02-26T06:47:24.114Z,20.10
2019-02-26T06:49:52.842Z,20.77
2019-02-26T06:52:21.874Z,17.77
2019-02-26T06:54:57.287Z,19.20
2019-02-26T06:57:21.697Z,17.53
2019-02-26T06:59:50.930Z,17.60
2019-02-26T07:02:21.570Z,14.77
2019-02-26T07:04:51.099Z,16.87
2019-02-26T07:07:20.382Z,15.60
2019-02-26T07:09:49.173Z,16.70
2019-02-26T07:12:20.002Z,14.73
2019-02-26T07:14:50.890Z,19.97
2019-02-26T07:17:20.063Z,16.03
2019-02-26T07:19:51.237Z,19.43
2019-02-26T07:22:19.969Z,17.80
2019-02-26T07:24:51.414Z,24.50
2019-02-26T07:27:19.893Z,28.67
2019-02-26T07:29:52.175Z,18.27
2019-02-26T07:32:21.997Z,15.73
2019-02-26T07:34:52.129Z,13.87
2019-02-26T07:37:21.403Z,10.03
2019-02-26T07:39:51.612Z,10.27
2019-02-26T07:42:20.974Z,9.90
2019-02-26T07:44:50.006Z,13.17
2019-02-26T07:47:19.278Z,18.03
2019-02-26T07:49:48.309Z,14.83
2019-02-26T07:52:17.608Z,82.20
2019-02-26T07:54:47.606Z,77.27
2019-02-26T07:57:18.245Z,86.07
2019-02-26T07:59:50.016Z,67.43
2019-02-26T08:02:18.813Z,41.63
2019-02-26T08:04:47.625Z,29.50
2019-02-26T08:07:16.734Z,28.60
2019-02-26T08:09:45.520Z,18.40
2019-02-26T08:12:14.383Z,13.57
2019-02-26T08:14:45.881Z,14.37
2019-02-26T08:17:13.973Z,11.30
2019-02-26T08:19:46.377Z,11.10
2019-02-26T08:22:14.146Z,11.83
2019-02-26T08:24:43.181Z,8.10
2019-02-26T08:27:13.587Z,11.47
2019-02-26T08:29:42.705Z,9.60
2019-02-26T08:32:15.885Z,10.17
2019-02-26T08:34:43.073Z,10.13
2019-02-26T08:37:12.105Z,10.73
2019-02-26T08:39:41.208Z,10.00
2019-02-26T08:42:11.213Z,8.73
2019-02-26T08:44:40.766Z,9.50
2019-02-26T08:47:12.025Z,10.27
2019-02-26T08:49:42.791Z,9.63
2019-02-26T08:52:11.798Z,10.70
2019-02-26T08:54:40.601Z,10.47
2019-02-26T08:57:11.888Z,13.73
2019-02-26T08:59:42.242Z,10.27
2019-02-26T09:02:11.884Z,11.73
2019-02-26T09:04:42.664Z,10.80
2019-02-26T09:07:11.752Z,10.50
2019-02-26T09:09:40.622Z,12.67
2019-02-26T09:12:09.410Z,9.77
2019-02-26T09:14:40.305Z,9.07
2019-02-26T09:17:09.193Z,10.27
2019-02-26T09:19:38.477Z,10.70
2019-02-26T09:22:09.702Z,50.80
2019-02-26T09:24:37.873Z,10.00
2019-02-26T09:27:06.889Z,8.73
2019-02-26T09:29:36.649Z,10.53
2019-02-26T09:32:08.827Z,11.97
2019-02-26T09:34:39.697Z,10.53
2019-02-26T09:37:08.095Z,10.83
2019-02-26T09:39:38.992Z,9.20
2019-02-26T09:42:09.204Z,9.17
2019-02-26T09:44:38.429Z,13.03
2019-02-26T09:47:07.567Z,10.87
2019-02-26T09:49:36.993Z,11.07
2019-02-26T09:52:06.559Z,9.00
2019-02-26T09:54:40.352Z,10.17
2019-02-26T09:57:06.253Z,12.60
2019-02-26T09:59:36.575Z,10.40
2019-02-26T10:02:06.521Z,10.60
2019-02-26T10:04:35.590Z,10.53
2019-02-26T10:07:06.752Z,12.83
2019-02-26T10:09:37.575Z,10.53
2019-02-26T10:12:07.474Z,11.07
2019-02-26T10:14:38.514Z,9.47
2019-02-26T10:17:09.070Z,9.23
2019-02-26T10:19:38.838Z,9.60
2019-02-26T10:22:12.596Z,10.03
2019-02-26T10:24:40.396Z,11.13
2019-02-26T10:27:11.454Z,9.27
2019-02-26T10:29:44.414Z,8.00
2019-02-26T10:32:11.937Z,10.00
2019-02-26T10:34:42.109Z,8.10
2019-02-26T10:37:10.978Z,7.97
2019-02-26T10:39:41.868Z,8.37
2019-02-26T10:42:12.109Z,10.83
2019-02-26T10:44:42.703Z,8.23
2019-02-26T10:47:12.405Z,6.97
2019-02-26T10:49:41.506Z,6.27
2019-02-26T10:52:13.430Z,7.50
2019-02-26T10:54:43.692Z,7.20
2019-02-26T10:57:14.496Z,9.40
2019-02-26T10:59:44.918Z,7.43
2019-02-26T11:02:14.575Z,7.63
2019-02-26T11:04:46.894Z,8.97
2019-02-26T11:07:16.107Z,7.30
2019-02-26T11:09:47.454Z,7.30
2019-02-26T11:12:16.094Z,7.20
2019-02-26T11:14:45.186Z,5.47
2019-02-26T11:17:15.826Z,8.97
2019-02-26T11:19:45.411Z,7.17
2019-02-26T11:22:17.663Z,7.43
2019-02-26T11:24:44.767Z,8.97
2019-02-26T11:27:13.846Z,8.60
2019-02-26T11:29:43.143Z,13.27
2019-02-26T11:32:13.461Z,10.03
2019-02-26T11:34:43.328Z,17.03
2019-02-26T11:37:12.473Z,8.90
2019-02-26T11:39:41.546Z,7.47
2019-02-26T11:42:10.866Z,8.47
2019-02-26T11:44:40.192Z,8.37
2019-02-26T11:47:11.143Z,7.97
2019-02-26T11:49:41.863Z,7.57
2019-02-26T11:52:10.911Z,6.33
2019-02-26T11:54:42.074Z,6.80
2019-02-26T11:57:12.898Z,5.97
2019-02-26T11:59:42.860Z,6.27
2019-02-26T12:02:12.078Z,6.80
2019-02-26T12:04:41.615Z,6.63
2019-02-26T12:07:10.835Z,6.90
2019-02-26T12:09:41.306Z,6.87
2019-02-26T12:12:11.646Z,7.07
2019-02-26T12:14:43.212Z,7.63
2019-02-26T12:17:11.799Z,6.93
2019-02-26T12:19:40.851Z,9.13
2019-02-26T12:22:09.747Z,6.57
2019-02-26T12:24:38.839Z,6.73
2019-02-26T12:27:09.789Z,6.00
2019-02-26T12:29:40.214Z,6.73
2019-02-26T12:32:09.577Z,5.50
2019-02-26T12:34:39.067Z,5.90
2019-02-26T12:37:11.606Z,5.93
2019-02-26T12:39:40.002Z,5.80
2019-02-26T12:42:10.662Z,5.77
2019-02-26T12:44:44.816Z,6.83
2019-02-26T12:47:12.109Z,7.57
2019-02-26T12:49:44.908Z,6.77
2019-02-26T12:52:14.957Z,5.83
2019-02-26T12:54:43.342Z,8.30
2019-02-26T12:57:12.646Z,8.23
2019-02-26T12:59:41.715Z,7.33
2019-02-26T13:02:13.955Z,5.73
2019-02-26T13:04:44.226Z,7.73
2019-02-26T13:07:12.359Z,4.87
2019-02-26T13:09:50.424Z,9.33
2019-02-26T13:12:17.060Z,5.40
2019-02-26T13:14:43.906Z,5.30
2019-02-26T13:17:13.883Z,5.77
2019-02-26T13:19:43.329Z,7.27
2019-02-26T13:22:17.247Z,5.17
2019-02-26T13:24:43.180Z,6.20
2019-02-26T13:27:12.237Z,5.97
2019-02-26T13:29:47.490Z,5.57
2019-02-26T13:32:13.659Z,6.70
2019-02-26T13:34:42.898Z,9.23
2019-02-26T13:37:13.119Z,6.30
2019-02-26T13:39:45.457Z,6.50
2019-02-26T13:42:13.970Z,6.90
2019-02-26T13:44:43.929Z,6.30
2019-02-26T13:47:12.816Z,6.73
2019-02-26T13:49:41.964Z,5.87
2019-02-26T13:52:11.293Z,6.80
2019-02-26T13:54:40.585Z,8.27
2019-02-26T13:57:09.727Z,6.53
2019-02-26T13:59:39.023Z,8.00
2019-02-26T14:02:08.390Z,6.63
2019-02-26T14:04:37.722Z,8.67
2019-02-26T14:07:07.161Z,7.77
2019-02-26T14:09:35.974Z,7.17
2019-02-26T14:12:05.118Z,6.00
2019-02-26T14:14:34.414Z,6.40
2019-02-26T14:17:03.556Z,6.47
2019-02-26T14:19:32.627Z,7.00
2019-02-26T14:22:01.688Z,5.67
2019-02-26T14:24:30.998Z,6.87
2019-02-26T14:27:00.062Z,7.43
2019-02-26T14:29:29.800Z,7.00
2019-02-26T14:31:58.732Z,8.30
2019-02-26T14:34:27.553Z,8.27
2019-02-26T14:36:56.638Z,10.33
2019-02-26T14:39:25.849Z,8.53
2019-02-26T14:41:55.150Z,8.27
2019-02-26T14:44:24.286Z,8.03
2019-02-26T14:46:53.178Z,7.33
2019-02-26T14:49:23.578Z,7.73
2019-02-26T14:51:52.685Z,9.87
2019-02-26T14:54:21.580Z,6.30
2019-02-26T14:56:50.658Z,8.63
2019-02-26T14:59:19.966Z,8.17
2019-02-26T15:01:49.045Z,7.90
2019-02-26T15:04:18.102Z,8.17
2019-02-26T15:06:47.402Z,10.43
2019-02-26T15:09:16.250Z,10.20
2019-02-26T15:11:45.478Z,8.07
2019-02-26T15:14:14.638Z,9.63
2019-02-26T15:16:43.764Z,7.13
2019-02-26T15:19:13.183Z,7.73
2019-02-26T15:21:42.063Z,8.17
2019-02-26T15:24:11.165Z,10.67
2019-02-26T15:26:40.547Z,9.77
2019-02-26T15:29:10.101Z,11.27
2019-02-26T15:31:39.660Z,9.03
2019-02-26T15:34:08.793Z,8.10
2019-02-26T15:36:37.930Z,10.33
2019-02-26T15:39:08.109Z,8.50
2019-02-26T15:41:37.021Z,10.53
2019-02-26T15:44:06.108Z,8.43
2019-02-26T15:46:35.332Z,9.83
2019-02-26T15:49:07.248Z,10.97
2019-02-26T15:51:35.226Z,8.67
2019-02-26T15:54:04.358Z,10.70
2019-02-26T15:56:33.667Z,10.40
2019-02-26T15:59:04.797Z,9.57
2019-02-26T16:01:34.163Z,10.03
2019-02-26T16:04:03.235Z,10.23
2019-02-26T16:06:32.032Z,7.37
2019-02-26T16:09:01.106Z,10.37
2019-02-26T16:11:30.569Z,8.93
2019-02-26T16:13:59.920Z,9.23
2019-02-26T16:16:29.302Z,8.40
2019-02-26T16:19:00.685Z,8.33
2019-02-26T16:21:29.778Z,9.30
2019-02-26T16:23:58.990Z,9.53
2019-02-26T16:26:28.055Z,9.20
2019-02-26T16:29:00.838Z,9.83
2019-02-26T16:31:29.905Z,9.27
2019-02-26T16:33:59.033Z,9.10
2019-02-26T16:36:28.747Z,8.07
2019-02-26T16:38:58.770Z,7.87
2019-02-26T16:41:28.096Z,10.37
2019-02-26T16:43:57.314Z,8.33
2019-02-26T16:46:26.798Z,8.50
2019-02-26T16:48:55.889Z,9.47
2019-02-26T16:51:25.102Z,10.20
2019-02-26T16:53:54.542Z,15.87
2019-02-26T16:56:23.935Z,13.23
2019-02-26T16:58:53.558Z,19.20
2019-02-26T17:01:22.771Z,24.90
2019-02-26T17:03:51.664Z,24.17
2019-02-26T17:06:21.182Z,20.37
2019-02-26T17:08:50.579Z,18.73
2019-02-26T17:11:19.674Z,16.67
2019-02-26T17:13:49.079Z,19.00
2019-02-26T17:16:19.122Z,17.03
2019-02-26T17:18:48.500Z,18.80
2019-02-26T17:21:17.403Z,13.40
2019-02-26T17:23:47.108Z,16.30
2019-02-26T17:26:16.649Z,14.10
2019-02-26T17:28:45.673Z,11.40
2019-02-26T17:31:14.730Z,11.00
2019-02-26T17:33:44.760Z,12.37
2019-02-26T17:36:14.439Z,15.07
2019-02-26T17:38:43.217Z,13.73
2019-02-26T17:41:12.788Z,12.23
2019-02-26T17:43:41.627Z,12.83
2019-02-26T17:46:10.489Z,12.13
2019-02-26T17:48:43.516Z,15.33
2019-02-26T17:51:10.762Z,10.67
2019-02-26T17:53:40.057Z,11.07
2019-02-26T17:56:09.098Z,12.00
2019-02-26T17:58:38.390Z,13.77
2019-02-26T18:01:07.543Z,17.87
2019-02-26T18:03:36.398Z,15.60
2019-02-26T18:06:05.512Z,15.43
2019-02-26T18:08:34.628Z,14.30
2019-02-26T18:11:03.762Z,13.57
2019-02-26T18:13:32.786Z,15.03
2019-02-26T18:16:08.910Z,19.20
2019-02-26T18:18:34.419Z,20.03
2019-02-26T18:21:05.786Z,20.50
2019-02-26T18:23:37.515Z,26.50
2019-02-26T18:26:04.783Z,16.30
2019-02-26T18:28:33.642Z,13.90
2019-02-26T18:31:02.587Z,17.67
2019-02-26T18:33:35.573Z,18.93
2019-02-26T18:36:02.714Z,11.97
2019-02-26T18:38:32.075Z,10.93
2019-02-26T18:41:01.277Z,10.47
2019-02-26T18:43:30.743Z,10.00
2019-02-26T18:46:00.759Z,12.13
2019-02-26T18:48:30.308Z,11.47
2019-02-26T18:51:02.201Z,9.63
2019-02-26T18:53:30.602Z,10.47
2019-02-26T18:56:01.754Z,9.50
2019-02-26T18:58:31.474Z,8.33
2019-02-26T19:01:00.413Z,11.63
2019-02-26T19:03:29.440Z,12.47
2019-02-26T19:05:58.744Z,10.30
2019-02-26T19:08:28.005Z,8.63
2019-02-26T19:10:57.041Z,10.93
2019-02-26T19:13:26.370Z,11.90
2019-02-26T19:15:55.189Z,58.87
2019-02-26T19:18:23.993Z,40.40
2019-02-26T19:20:52.786Z,21.60
2019-02-26T19:23:21.814Z,14.70
2019-02-26T19:25:50.619Z,16.80
2019-02-26T19:28:20.221Z,16.00
2019-02-26T19:30:49.274Z,16.10
2019-02-26T19:33:18.822Z,17.30
2019-02-26T19:35:49.082Z,15.30
2019-02-26T19:38:18.171Z,14.80
2019-02-26T19:40:47.232Z,13.77
2019-02-26T19:43:16.089Z,13.33
2019-02-26T19:45:45.142Z,13.97
2019-02-26T19:48:13.935Z,16.77
2019-02-26T19:50:45.474Z,10.83
2019-02-26T19:53:13.815Z,13.57
2019-02-26T19:55:42.702Z,12.63
2019-02-26T19:58:11.577Z,12.37
2019-02-26T20:00:40.446Z,7.93
2019-02-26T20:03:09.321Z,8.77
2019-02-26T20:05:38.124Z,9.07
2019-02-26T20:08:07.304Z,9.80
2019-02-26T20:10:36.167Z,8.30
2019-02-26T20:13:05.294Z,8.47
2019-02-26T20:15:34.120Z,12.30
2019-02-26T20:18:02.939Z,8.20
2019-02-26T20:20:40.523Z,9.83
2019-02-26T20:23:06.013Z,12.70
2019-02-26T20:25:33.789Z,16.03
2019-02-26T20:28:05.609Z,10.53
2019-02-26T20:30:33.654Z,12.70
2019-02-26T20:33:03.986Z,12.70
2019-02-26T20:35:33.360Z,13.97
2019-02-26T20:38:02.399Z,12.50
2019-02-26T20:40:31.759Z,12.27
2019-02-26T20:43:01.783Z,13.90
2019-02-26T20:45:32.283Z,11.63
2019-02-26T20:48:03.823Z,10.77
2019-02-26T20:50:32.086Z,9.23
2019-02-26T20:53:05.727Z,22.40
2019-02-26T20:55:33.822Z,14.47
2019-02-26T20:58:03.229Z,40.70
2019-02-26T21:00:32.416Z,24.53
2019-02-26T21:03:01.870Z,14.87
2019-02-26T21:05:30.893Z,12.77
2019-02-26T21:07:59.710Z,13.23
2019-02-26T21:10:28.742Z,16.50
2019-02-26T21:13:01.639Z,19.57
2019-02-26T21:15:28.769Z,17.03
2019-02-26T21:17:58.597Z,16.87
2019-02-26T21:20:28.209Z,10.10
2019-02-26T21:22:57.365Z,14.43
2019-02-26T21:25:27.210Z,13.20
2019-02-26T21:27:56.010Z,12.33
2019-02-26T21:30:25.054Z,13.03
2019-02-26T21:32:57.891Z,13.43
2019-02-26T21:35:25.097Z,14.87
2019-02-26T21:37:53.901Z,13.00
2019-02-26T21:40:23.256Z,12.70
2019-02-26T21:42:52.386Z,14.00
2019-02-26T21:45:21.481Z,10.47
2019-02-26T21:47:50.530Z,10.33
2019-02-26T21:50:21.823Z,12.33
2019-02-26T21:53:05.799Z,11.13
2019-02-26T21:55:20.905Z,13.43
2019-02-26T21:57:49.940Z,10.77
2019-02-26T22:00:20.298Z,9.93
2019-02-26T22:02:52.379Z,11.43
2019-02-26T22:05:21.676Z,10.57
2019-02-26T22:07:52.381Z,9.43
2019-02-26T22:10:22.107Z,9.60
2019-02-26T22:12:51.788Z,9.60
2019-02-26T22:15:21.425Z,10.53
2019-02-26T22:17:50.832Z,10.33
2019-02-26T22:20:35.422Z,9.83
2019-02-26T22:22:51.104Z,9.70
2019-02-26T22:25:20.522Z,11.20
2019-02-26T22:27:49.911Z,10.30
2019-02-26T22:30:21.972Z,10.97
2019-02-26T22:32:50.178Z,10.20
2019-02-26T22:35:19.397Z,9.93
2019-02-26T22:37:48.753Z,11.10
2019-02-26T22:40:17.550Z,13.27
2019-02-26T22:42:46.617Z,14.13
2019-02-26T22:45:15.630Z,11.90
2019-02-26T22:47:44.803Z,12.77
2019-02-26T22:50:14.143Z,12.90
2019-02-26T22:52:43.598Z,12.43
2019-02-26T22:55:16.160Z,14.77
2019-02-26T22:57:43.790Z,12.73
2019-02-26T23:00:53.909Z,10.73
2019-02-26T23:03:22.950Z,12.83
2019-02-26T23:05:52.194Z,13.53
2019-02-26T23:08:21.631Z,12.60
2019-02-26T23:10:51.415Z,16.10
2019-02-26T23:13:20.503Z,16.87
2019-02-26T23:15:49.705Z,12.10
2019-02-26T23:18:19.934Z,11.73
2019-02-26T23:20:49.473Z,14.07
2019-02-26T23:23:21.693Z,16.27
2019-02-26T23:26:09.370Z,12.30
2019-02-26T23:28:38.424Z,12.47
2019-02-26T23:31:07.750Z,10.27
2019-02-26T23:33:36.862Z,10.77
2019-02-26T23:36:06.045Z,10.17
2019-02-26T23:38:35.149Z,9.93
2019-02-26T23:41:04.088Z,10.90
2019-02-26T23:43:33.013Z,8.60
2019-02-26T23:46:02.380Z,10.37
2019-02-26T23:48:31.443Z,12.13
2019-02-26T23:51:00.559Z,7.83
2019-02-26T23:53:33.926Z,10.17
2019-02-26T23:56:00.851Z,13.00
2019-02-26T23:58:31.178Z,14.93
